Time;durP1;ratioP1;P1;durP2;ratioP2;P2;SDS_P1;SDS_P2;PMS_P1;PMS_P2;Temp;Humidity;BMP_temperature;BMP_pressure;BME280_temperature;BME280_humidity;BME280_pressure;Samples;Min_cycle;Max_cycle;Signal;HPM_P1;HPM_P2
2021/06/29 00:00:43;;;;;;;;;;;;;;;19.21;65.10;98056.19;1755858;81;20962;-87
2021/06/29 00:03:11;;;;;;;;;;;;;;;19.15;65.14;98051.56;1755879;81;20175;-87
2021/06/29 00:05:37;;;;;;;;;;;;;;;19.18;65.14;98052.56;1755253;81;20242;-88
2021/06/29 00:08:05;;;;;;;;;;;;;;;19.21;65.18;98049.06;1755438;81;24853;-87
2021/06/29 00:10:31;;;;;;;;;;;;;;;19.27;65.20;98048.05;1756260;81;22001;-87
2021/06/29 00:12:57;;;;;;;;;;;;;;;19.32;65.25;98053.17;1756171;81;21049;-88
2021/06/29 00:15:24;;;;;;;;;;;;;;;19.32;65.32;98049.19;1756007;81;20344;-88
2021/06/29 00:17:50;;;;;;;;;;;;;;;19.19;65.36;98049.75;1756111;81;20274;-88
2021/06/29 00:20:16;;;;;;;;;;;;;;;19.15;65.43;98052.89;1755195;81;24821;-87
2021/06/29 00:22:43;;;;;;;;;;;;;;;19.16;65.50;98051.40;1756879;81;20277;-87
2021/06/29 00:25:09;;;;;;;;;;;;;;;19.13;65.56;98050.92;1756486;81;26043;-88
2021/06/29 00:27:35;;;;;;;;;;;;;;;19.08;65.62;98050.11;1755263;81;24390;-88
2021/06/29 00:30:01;;;;;;;;;;;;;;;19.06;65.64;98045.95;1748456;81;20317;-88
2021/06/29 00:32:27;;;;;;;;;;;;;;;19.04;65.65;98043.47;1745522;81;24816;-88
2021/06/29 00:34:53;;;;;;;;;;;;;;;18.88;65.66;98037.38;1748278;81;20218;-87
2021/06/29 00:37:19;;;;;;;;;;;;;;;18.72;65.68;98041.71;1745837;81;21132;-88
2021/06/29 00:39:45;;;;;;;;;;;;;;;18.57;65.76;98038.09;1744278;81;20899;-88
2021/06/29 00:42:11;;;;;;;;;;;;;;;18.44;65.86;98039.58;1747610;81;20281;-88
2021/06/29 00:44:37;;;;;;;;;;;;;;;18.33;65.97;98036.23;1741759;81;24866;-88
2021/06/29 00:47:03;;;;;;;;;;;;;;;18.22;66.10;98041.05;1748738;81;20230;-88
2021/06/29 00:49:29;;;;;;;;;;;;;;;18.13;66.24;98046.00;1744353;81;25850;-88
2021/06/29 00:51:55;;;;;;;;;;;;;;;18.09;66.38;98037.56;1745637;81;20238;-88
2021/06/29 00:54:21;;;;;;;;;;;;;;;18.04;66.60;98027.95;1745852;81;20642;-88
2021/06/29 00:56:47;;;;;;;;;;;;;;;18.00;66.75;98023.16;1716195;81;20310;-88
2021/06/29 00:59:12;;;;;;;;;;;;;;;17.95;66.95;98019.65;1746134;81;20258;-88
2021/06/29 01:01:38;;;;;;;;;;;;;;;17.91;67.11;98020.48;1746545;81;21022;-87
2021/06/29 01:04:07;;;;;;;;;;;;;;;17.90;67.29;98013.52;1749358;81;20741;-87
2021/06/29 01:06:33;;;;;;;;;;;;;;;17.91;67.41;98010.38;1744457;81;20310;-88
2021/06/29 01:09:00;;;;;;;;;;;;;;;17.90;67.55;98009.55;1747699;81;24784;-88
2021/06/29 01:11:26;;;;;;;;;;;;;;;17.87;67.68;98013.03;1746149;81;22702;-87
2021/06/29 01:13:52;;;;;;;;;;;;;;;17.84;67.83;98011.52;1747252;81;21016;-88
2021/06/29 01:16:18;;;;;;;;;;;;;;;17.82;67.96;98010.88;1747752;81;20826;-88
2021/06/29 01:18:45;;;;;;;;;;;;;;;17.80;68.08;98008.88;1743264;81;20330;-87
2021/06/29 01:21:16;;;;;;;;;;;;;;;17.81;68.21;98002.59;1749564;81;24968;-88
2021/06/29 01:23:46;;;;;;;;;;;;;;;17.82;68.39;98001.61;1746563;81;22592;-88
2021/06/29 01:26:14;;;;;;;;;;;;;;;17.86;68.54;97991.52;1743810;81;25990;-88
2021/06/29 01:28:53;;;;;;;;;;;;;;;17.89;68.69;97992.01;1748951;81;24451;-88
2021/06/29 01:31:09;;;;;;;;;;;;;;;17.92;68.82;97995.67;1745254;81;20490;-88
2021/06/29 01:33:35;;;;;;;;;;;;;;;18.02;68.93;97992.02;1756147;81;25469;-87
2021/06/29 01:36:01;;;;;;;;;;;;;;;18.16;69.08;97992.72;1751112;81;20242;-88
2021/06/29 01:38:26;;;;;;;;;;;;;;;18.28;69.17;97987.39;1756405;81;21668;-87
2021/06/29 01:40:53;;;;;;;;;;;;;;;18.37;69.22;97990.38;1751862;81;24640;-87
2021/06/29 01:43:26;;;;;;;;;;;;;;;18.38;69.29;97989.39;1755057;81;20270;-88
2021/06/29 01:45:49;;;;;;;;;;;;;;;18.35;69.35;97980.44;1744618;81;25737;-87
2021/06/29 01:48:21;;;;;;;;;;;;;;;18.29;69.39;97982.42;1752765;81;21810;-88
2021/06/29 01:50:45;;;;;;;;;;;;;;;18.19;69.46;97979.13;1753463;81;26060;-88
2021/06/29 01:53:11;;;;;;;;;;;;;;;18.27;69.55;97982.58;1750595;81;20247;-88
2021/06/29 01:55:37;;;;;;;;;;;;;;;18.28;69.64;97983.41;1752945;81;20258;-88
2021/06/29 01:58:03;;;;;;;;;;;;;;;18.35;69.70;97980.44;1750690;81;20304;-88
2021/06/29 02:00:29;;;;;;;;;;;;;;;18.23;69.72;97977.79;1756922;81;22019;-87
2021/06/29 02:02:55;;;;;;;;;;;;;;;18.11;69.74;97972.52;1753633;81;21014;-88
2021/06/29 02:05:21;;;;;;;;;;;;;;;18.08;69.83;97968.86;1747336;81;24373;-88
2021/06/29 02:07:47;;;;;;;;;;;;;;;18.05;69.98;97977.98;1757363;81;20333;-87
2021/06/29 02:10:14;;;;;;;;;;;;;;;18.00;70.09;97976.33;1752103;81;24751;-88
2021/06/29 02:12:40;;;;;;;;;;;;;;;17.98;70.22;97980.45;1753898;81;21992;-88
2021/06/29 02:15:06;;;;;;;;;;;;;;;17.97;70.30;97979.28;1754086;81;25981;-87
2021/06/29 02:17:32;;;;;;;;;;;;;;;18.10;70.42;97974.83;1751181;81;24469;-88
2021/06/29 02:19:58;;;;;;;;;;;;;;;18.16;70.52;97973.68;1756112;81;20302;-87
2021/06/29 02:22:24;;;;;;;;;;;;;;;18.19;70.60;97973.83;1750664;81;20764;-88
2021/06/29 02:24:50;;;;;;;;;;;;;;;18.17;70.67;97970.50;1757576;81;20828;-88
2021/06/29 02:27:16;;;;;;;;;;;;;;;18.10;70.72;97976.16;1748999;81;26022;-87
2021/06/29 02:29:48;;;;;;;;;;;;;;;18.03;70.78;97978.63;1754984;81;20835;-87
2021/06/29 02:32:14;;;;;;;;;;;;;;;18.00;70.92;97982.11;1752110;81;20349;-88
2021/06/29 02:34:40;;;;;;;;;;;;;;;17.96;71.01;97973.16;1757488;81;20358;-88
2021/06/29 02:37:05;;;;;;;;;;;;;;;17.94;71.10;97979.63;1760312;81;20269;-88
2021/06/29 02:39:31;;;;;;;;;;;;;;;17.91;71.21;97969.34;1760967;81;21557;-88
2021/06/29 02:41:57;;;;;;;;;;;;;;;17.94;71.33;97978.30;1760124;81;20234;-87
2021/06/29 02:44:23;;;;;;;;;;;;;;;18.05;71.44;97983.77;1757455;81;20333;-88
2021/06/29 02:46:49;;;;;;;;;;;;;;;18.05;71.54;97981.13;1767518;80;24754;-87
2021/06/29 02:49:15;;;;;;;;;;;;;;;18.06;71.61;97978.78;1756131;81;20266;-88
2021/06/29 02:51:41;;;;;;;;;;;;;;;18.11;71.69;97977.81;1755620;81;20986;-88
2021/06/29 02:54:07;;;;;;;;;;;;;;;18.20;71.76;97976.81;1759564;81;20265;-88
2021/06/29 02:56:42;;;;;;;;;;;;;;;18.26;71.81;97973.01;1756873;81;20253;-88
2021/06/29 02:59:08;;;;;;;;;;;;;;;18.17;71.79;97977.12;1758797;81;24825;-87
2021/06/29 03:01:34;;;;;;;;;;;;;;;18.04;71.82;97975.00;1754477;81;21915;-88
2021/06/29 03:04:00;;;;;;;;;;;;;;;17.96;71.86;97975.80;1760284;81;21004;-87
2021/06/29 03:06:26;;;;;;;;;;;;;;;17.91;71.98;97970.67;1755989;81;20839;-88
2021/06/29 03:08:52;;;;;;;;;;;;;;;17.88;72.12;97977.63;1759331;81;20324;-88
2021/06/29 03:11:18;;;;;;;;;;;;;;;17.86;72.23;97980.44;1755837;81;20265;-88
2021/06/29 03:13:44;;;;;;;;;;;;;;;17.92;72.34;97983.75;1757584;81;20293;-87
2021/06/29 03:16:11;;;;;;;;;;;;;;;18.06;72.47;97981.42;1724585;81;21688;-88
2021/06/29 03:18:37;;;;;;;;;;;;;;;18.18;72.56;97986.23;1758533;81;25197;-88
2021/06/29 03:21:04;;;;;;;;;;;;;;;18.33;72.68;97985.89;1757448;81;20241;-84
2021/06/29 03:23:30;;;;;;;;;;;;;;;18.43;72.76;97983.59;1757231;81;25535;-85
2021/06/29 03:25:56;;;;;;;;;;;;;;;18.40;72.77;97967.02;1756864;81;20329;-84
2021/06/29 03:28:25;;;;;;;;;;;;;;;18.35;72.81;97960.08;1753752;81;26037;-85
2021/06/29 03:30:51;;;;;;;;;;;;;;;18.26;72.85;97958.44;1751001;81;20402;-85
2021/06/29 03:33:17;;;;;;;;;;;;;;;18.29;72.90;97961.23;1745358;81;20253;-85
2021/06/29 03:35:42;;;;;;;;;;;;;;;18.36;72.97;97959.58;1748085;81;20215;-85
2021/06/29 03:38:08;;;;;;;;;;;;;;;18.51;73.04;97958.39;1749076;81;20253;-85
2021/06/29 03:40:34;;;;;;;;;;;;;;;18.66;73.12;97962.02;1746866;81;20997;-84
2021/06/29 03:43:00;;;;;;;;;;;;;;;18.74;73.18;97952.74;1744177;81;24407;-85
2021/06/29 03:45:26;;;;;;;;;;;;;;;18.88;73.24;97959.14;1713642;82;20317;-85
2021/06/29 03:47:52;;;;;;;;;;;;;;;18.92;73.25;97957.34;1744127;81;20781;-85
2021/06/29 03:50:18;;;;;;;;;;;;;;;18.94;73.26;97950.52;1744254;81;20848;-85
2021/06/29 03:52:44;;;;;;;;;;;;;;;19.06;73.37;97949.14;1746491;81;26080;-84
2021/06/29 03:55:10;;;;;;;;;;;;;;;19.27;73.52;97948.05;1748223;81;24479;-84
2021/06/29 03:57:36;;;;;;;;;;;;;;;19.35;73.60;97948.52;1744838;81;20246;-84
2021/06/29 04:00:06;;;;;;;;;;;;;;;19.37;73.64;97947.33;1711838;81;39221;-85
2021/06/29 04:02:32;;;;;;;;;;;;;;;19.45;73.67;97951.31;1745589;81;22025;-84
2021/06/29 04:04:58;;;;;;;;;;;;;;;19.58;73.69;97961.37;1749618;81;21796;-84
2021/06/29 04:07:27;;;;;;;;;;;;;;;19.70;73.72;97961.27;1743373;81;20364;-84
2021/06/29 04:09:51;;;;;;;;;;;;;;;19.78;73.71;97957.74;1712108;82;20310;-84
2021/06/29 04:12:17;;;;;;;;;;;;;;;19.91;73.73;97956.66;1746086;81;20285;-84
2021/06/29 04:14:43;;;;;;;;;;;;;;;20.15;73.81;97960.44;1744471;81;20237;-84
2021/06/29 04:17:09;;;;;;;;;;;;;;;20.15;73.75;97957.78;1742538;81;21567;-84
2021/06/29 04:19:35;;;;;;;;;;;;;;;20.02;73.61;97955.72;1745029;81;20273;-84
2021/06/29 04:22:01;;;;;;;;;;;;;;;19.90;73.45;97953.18;1747436;81;20334;-84
2021/06/29 04:24:26;;;;;;;;;;;;;;;19.84;73.40;97955.71;1743367;81;20533;-84
2021/06/29 04:26:53;;;;;;;;;;;;;;;19.79;73.41;97953.59;1745816;81;22948;-84
2021/06/29 04:29:19;;;;;;;;;;;;;;;19.86;73.46;97943.89;1744459;81;25373;-85
2021/06/29 04:31:45;;;;;;;;;;;;;;;20.05;73.66;97944.75;1749426;81;20230;-85
2021/06/29 04:34:10;;;;;;;;;;;;;;;20.23;73.76;97950.26;1745541;81;20340;-84
2021/06/29 04:36:36;;;;;;;;;;;;;;;20.32;73.78;97952.69;1748539;81;20237;-85
2021/06/29 04:39:02;;;;;;;;;;;;;;;20.35;73.75;97953.64;1750879;81;20224;-85
2021/06/29 04:41:33;;;;;;;;;;;;;;;20.34;73.68;97956.50;1745314;81;21011;-85
2021/06/29 04:43:56;;;;;;;;;;;;;;;20.38;73.65;97942.66;1743881;81;25070;-84
2021/06/29 04:46:22;;;;;;;;;;;;;;;20.49;73.69;97942.73;1747515;81;20246;-85
2021/06/29 04:48:48;;;;;;;;;;;;;;;20.60;73.72;97946.27;1746981;81;20848;-88
2021/06/29 04:51:14;;;;;;;;;;;;;;;20.62;73.67;97946.09;1745346;81;20916;-88
2021/06/29 04:53:40;;;;;;;;;;;;;;;20.65;73.67;97938.56;1743815;81;20925;-88
2021/06/29 04:56:16;;;;;;;;;;;;;;;20.67;73.71;97938.39;1743056;81;20286;-88
2021/06/29 04:58:33;;;;;;;;;;;;;;;20.71;73.79;97943.16;1743216;81;20477;-88
2021/06/29 05:00:59;;;;;;;;;;;;;;;20.82;73.87;97948.02;1744001;81;20226;-88
2021/06/29 05:03:26;;;;;;;;;;;;;;;20.88;73.80;97947.80;1747960;81;20349;-88
2021/06/29 05:05:56;;;;;;;;;;;;;;;20.88;73.70;97946.46;1745830;81;26065;-88
2021/06/29 05:08:20;;;;;;;;;;;;;;;20.93;73.68;97940.59;1742425;81;25003;-88
2021/06/29 05:10:46;;;;;;;;;;;;;;;21.02;73.69;97938.97;1746116;81;20750;-88
2021/06/29 05:13:12;;;;;;;;;;;;;;;21.12;73.71;97938.67;1744182;81;20773;-88
2021/06/29 05:15:38;;;;;;;;;;;;;;;21.21;73.68;97941.61;1747732;81;20430;-88
2021/06/29 05:18:04;;;;;;;;;;;;;;;21.24;73.59;97937.23;1745545;81;21046;-88
2021/06/29 05:20:34;;;;;;;;;;;;;;;21.24;73.51;97933.23;1751111;81;24471;-88
2021/06/29 05:22:57;;;;;;;;;;;;;;;21.24;73.46;97948.70;1743869;81;20385;-88
2021/06/29 05:25:23;;;;;;;;;;;;;;;21.29;73.40;97942.31;1748178;81;25531;-87
2021/06/29 05:27:49;;;;;;;;;;;;;;;21.33;73.33;97936.63;1744535;81;20246;-88
2021/06/29 05:30:16;;;;;;;;;;;;;;;21.40;73.33;97930.34;1749080;81;21582;-88
2021/06/29 05:32:41;;;;;;;;;;;;;;;21.43;73.29;97931.33;1744850;81;24627;-88
2021/06/29 05:35:08;;;;;;;;;;;;;;;21.42;73.18;97930.17;1747987;81;20258;-88
2021/06/29 05:37:34;;;;;;;;;;;;;;;21.41;73.07;97931.18;1743779;81;24883;-88
2021/06/29 05:40:00;;;;;;;;;;;;;;;21.43;73.00;97933.16;1750234;81;20891;-88
2021/06/29 05:42:26;;;;;;;;;;;;;;;21.43;72.89;97929.16;1743522;81;26096;-88
2021/06/29 05:44:52;;;;;;;;;;;;;;;21.45;72.83;97929.78;1748718;81;20242;-88
2021/06/29 05:47:22;;;;;;;;;;;;;;;21.46;72.74;97930.11;1747572;81;20270;-88
2021/06/29 05:49:48;;;;;;;;;;;;;;;21.47;72.67;97927.77;1741982;81;25039;-88
2021/06/29 05:52:20;;;;;;;;;;;;;;;21.46;72.64;97909.63;1743763;81;22072;-88
2021/06/29 05:54:46;;;;;;;;;;;;;;;21.60;72.64;97918.60;1744379;81;25990;-88
2021/06/29 05:57:13;;;;;;;;;;;;;;;21.64;72.59;97924.69;1743440;81;20238;-88
2021/06/29 05:59:40;;;;;;;;;;;;;;;21.67;72.53;97928.29;1744377;81;20215;-88
2021/06/29 06:02:07;;;;;;;;;;;;;;;21.74;72.51;97921.70;1746801;81;24808;-88
2021/06/29 06:04:33;;;;;;;;;;;;;;;21.81;72.49;97923.94;1746860;81;21958;-88
2021/06/29 06:06:59;;;;;;;;;;;;;;;21.87;72.45;97917.84;1743208;81;20966;-88
2021/06/29 06:09:25;;;;;;;;;;;;;;;21.88;72.30;97911.48;1746346;81;24408;-88
2021/06/29 06:11:51;;;;;;;;;;;;;;;21.94;72.12;97916.55;1744904;81;20250;-88
2021/06/29 06:14:17;;;;;;;;;;;;;;;22.00;72.02;97913.98;1746652;81;24790;-88
2021/06/29 06:16:43;;;;;;;;;;;;;;;22.08;71.91;97910.37;1742918;81;20762;-88
2021/06/29 06:19:09;;;;;;;;;;;;;;;22.11;71.68;97909.97;1744158;81;21040;-88
2021/06/29 06:21:35;;;;;;;;;;;;;;;22.21;71.59;97908.30;1744930;81;24508;-88
2021/06/29 06:24:01;;;;;;;;;;;;;;;22.30;71.50;97905.83;1743914;81;20254;-88
2021/06/29 06:26:27;;;;;;;;;;;;;;;22.38;71.42;97906.99;1746510;81;24796;-88
2021/06/29 06:28:53;;;;;;;;;;;;;;;22.46;71.35;97906.86;1746665;81;20301;-87
2021/06/29 06:31:19;;;;;;;;;;;;;;;22.55;71.26;97915.02;1752349;81;20998;-87
2021/06/29 06:33:44;;;;;;;;;;;;;;;22.64;71.18;97911.70;1748631;81;20284;-88
2021/06/29 06:36:10;;;;;;;;;;;;;;;22.68;71.11;97912.44;1755628;81;20355;-88
2021/06/29 06:38:37;;;;;;;;;;;;;;;22.71;71.02;97909.40;1749860;81;24783;-88
2021/06/29 06:41:03;;;;;;;;;;;;;;;22.70;70.85;97908.22;1752748;81;22125;-88
2021/06/29 06:43:29;;;;;;;;;;;;;;;22.72;70.79;97905.72;1753565;81;25973;-88
2021/06/29 06:45:55;;;;;;;;;;;;;;;22.76;70.75;97902.96;1753407;81;24476;-87
2021/06/29 06:48:21;;;;;;;;;;;;;;;22.81;70.70;97901.03;1749403;81;20250;-88
2021/06/29 06:50:47;;;;;;;;;;;;;;;22.89;70.72;97900.88;1750569;81;20206;-88
2021/06/29 06:53:14;;;;;;;;;;;;;;;22.95;70.73;97901.42;1747633;81;20274;-88
2021/06/29 06:55:40;;;;;;;;;;;;;;;23.03;70.77;97900.41;1723748;82;25902;-87
2021/06/29 06:58:06;;;;;;;;;;;;;;;23.09;70.73;97902.30;1752284;81;24479;-88
2021/06/29 07:00:32;;;;;;;;;;;;;;;23.15;70.65;97904.17;1752280;81;20262;-88
2021/06/29 07:02:58;;;;;;;;;;;;;;;23.22;70.61;97906.36;1749966;81;20328;-88
2021/06/29 07:05:26;;;;;;;;;;;;;;;23.35;70.54;97903.72;1748227;81;20329;-88
2021/06/29 07:07:52;;;;;;;;;;;;;;;23.41;70.45;97901.58;1750486;81;25971;-88
2021/06/29 07:10:18;;;;;;;;;;;;;;;23.47;70.34;97891.47;1748014;81;20866;-88
2021/06/29 07:12:44;;;;;;;;;;;;;;;23.56;70.24;97896.13;1753344;81;20255;-88
2021/06/29 07:15:10;;;;;;;;;;;;;;;23.69;70.24;97890.28;1750863;81;24859;-88
2021/06/29 07:17:37;;;;;;;;;;;;;;;23.83;70.16;97892.98;1749938;81;20374;-88
2021/06/29 07:20:11;;;;;;;;;;;;;;;23.90;70.07;97886.59;1753416;81;26069;-88
2021/06/29 07:22:35;;;;;;;;;;;;;;;23.99;69.95;97879.21;1755452;81;25264;-87
2021/06/29 07:25:01;;;;;;;;;;;;;;;24.04;69.72;97880.75;1756047;81;20190;-85
2021/06/29 07:27:27;;;;;;;;;;;;;;;24.09;69.48;97883.63;1756634;81;24833;-85
2021/06/29 07:29:53;;;;;;;;;;;;;;;24.19;69.34;97884.06;1750973;81;20230;-85
2021/06/29 07:32:20;;;;;;;;;;;;;;;24.30;69.07;97886.11;1747854;81;21017;-85
2021/06/29 07:34:46;;;;;;;;;;;;;;;24.38;68.80;97885.91;1745388;81;24575;-85
2021/06/29 07:37:12;;;;;;;;;;;;;;;24.54;68.68;97885.48;1747523;81;20258;-84
2021/06/29 07:39:38;;;;;;;;;;;;;;;24.72;68.50;97883.97;1744024;81;20292;-85
2021/06/29 07:42:04;;;;;;;;;;;;;;;24.94;68.36;97886.71;1746395;81;20194;-85
2021/06/29 07:44:32;;;;;;;;;;;;;;;25.13;68.10;97881.81;1746893;81;26018;-85
2021/06/29 07:46:58;;;;;;;;;;;;;;;25.29;67.84;97889.36;1745733;81;20373;-85
2021/06/29 07:49:25;;;;;;;;;;;;;;;25.41;67.56;97891.67;1745463;81;20817;-85
2021/06/29 07:51:51;;;;;;;;;;;;;;;25.40;67.14;97886.52;1713636;81;24403;-85
2021/06/29 07:54:18;;;;;;;;;;;;;;;25.41;66.87;97889.50;1708224;81;21921;-85
2021/06/29 07:56:44;;;;;;;;;;;;;;;25.48;66.71;97888.92;1744136;81;26066;-85
2021/06/29 07:59:09;;;;;;;;;;;;;;;25.53;66.49;97889.11;1713722;81;20266;-85
2021/06/29 08:01:35;;;;;;;;;;;;;;;25.63;66.26;97887.34;1746730;81;20337;-85
2021/06/29 08:04:01;;;;;;;;;;;;;;;25.70;66.01;97884.91;1747110;81;20222;-85
2021/06/29 08:06:27;;;;;;;;;;;;;;;25.76;65.79;97888.58;1746310;81;20956;-85
2021/06/29 08:08:53;;;;;;;;;;;;;;;25.80;65.59;97882.56;1742919;81;21053;-85
2021/06/29 08:11:19;;;;;;;;;;;;;;;25.80;65.29;97886.59;1742375;81;20292;-85
2021/06/29 08:13:45;;;;;;;;;;;;;;;25.83;65.08;97896.07;1747932;81;20247;-85
2021/06/29 08:16:11;;;;;;;;;;;;;;;25.82;64.77;97895.25;1744633;81;25418;-85
2021/06/29 08:18:38;;;;;;;;;;;;;;;25.88;64.59;97892.73;1748252;81;20227;-85
2021/06/29 08:21:04;;;;;;;;;;;;;;;25.84;64.26;97892.36;1744839;81;26000;-85
2021/06/29 08:23:30;;;;;;;;;;;;;;;25.84;64.02;97895.03;1744258;81;24540;-85
2021/06/29 08:25:56;;;;;;;;;;;;;;;25.83;63.79;97896.89;1749995;81;20575;-85
2021/06/29 08:28:23;;;;;;;;;;;;;;;25.85;63.62;97897.20;1744479;81;24823;-85
2021/06/29 08:30:51;;;;;;;;;;;;;;;25.86;63.44;97892.94;1743125;81;21990;-86
2021/06/29 08:33:20;;;;;;;;;;;;;;;25.89;63.27;97893.04;1747975;81;26040;-85
2021/06/29 08:35:44;;;;;;;;;;;;;;;25.97;63.22;97890.08;1754279;81;24656;-85
2021/06/29 08:38:12;;;;;;;;;;;;;;;26.02;63.11;97891.06;1754124;81;20500;-85
2021/06/29 08:40:39;;;;;;;;;;;;;;;26.08;63.06;97890.19;1756328;81;24987;-85
2021/06/29 08:43:05;;;;;;;;;;;;;;;26.07;62.83;97889.09;1747763;81;21797;-85
2021/06/29 08:45:31;;;;;;;;;;;;;;;26.07;62.62;97890.44;1751981;81;26757;-85
2021/06/29 08:47:58;;;;;;;;;;;;;;;26.08;62.30;97888.85;1751099;81;25130;-85
2021/06/29 08:50:29;;;;;;;;;;;;;;;26.15;62.22;97892.83;1746527;81;20314;-88
2021/06/29 08:52:52;;;;;;;;;;;;;;;26.23;62.13;97888.05;1748849;81;24780;-88
2021/06/29 08:55:18;;;;;;;;;;;;;;;26.30;61.98;97891.17;1750532;81;20316;-88
2021/06/29 08:57:44;;;;;;;;;;;;;;;26.36;61.82;97888.95;1751958;81;21021;-88
2021/06/29 09:00:12;;;;;;;;;;;;;;;26.45;61.67;97893.02;1749632;81;20307;-88
2021/06/29 09:02:41;;;;;;;;;;;;;;;26.54;61.64;97884.97;1753793;81;20504;-88
2021/06/29 09:05:17;;;;;;;;;;;;;;;26.63;61.42;97886.31;1746097;81;24827;-88
2021/06/29 09:07:44;;;;;;;;;;;;;;;26.73;61.27;97883.93;1749496;81;22586;-88
2021/06/29 09:10:10;;;;;;;;;;;;;;;26.81;60.98;97883.64;1725346;81;26232;-88
2021/06/29 09:12:47;;;;;;;;;;;;;;;26.94;60.93;97878.17;1749560;81;25198;-88
2021/06/29 09:15:30;;;;;;;;;;;;;;;27.10;60.87;97879.94;1751040;81;20251;-88
2021/06/29 09:17:58;;;;;;;;;;;;;;;27.24;60.75;97872.00;1752673;81;24829;-88
2021/06/29 09:20:29;;;;;;;;;;;;;;;27.35;60.50;97869.88;1728968;81;22043;-88
2021/06/29 09:22:57;;;;;;;;;;;;;;;27.39;60.20;97869.20;1750561;81;26097;-88
2021/06/29 09:25:27;;;;;;;;;;;;;;;27.43;59.84;97865.55;1755059;81;24366;-88
2021/06/29 09:27:54;;;;;;;;;;;;;;;27.38;59.46;97862.73;1751338;81;20207;-88
2021/06/29 09:30:27;;;;;;;;;;;;;;;27.35;59.13;97863.16;1750928;81;25639;-88
2021/06/29 09:33:07;;;;;;;;;;;;;;;27.36;59.00;97856.23;1742556;81;22010;-88
2021/06/29 09:35:34;;;;;;;;;;;;;;;27.35;58.72;97856.45;1746305;81;26063;-89
2021/06/29 09:38:00;;;;;;;;;;;;;;;27.36;58.61;97861.60;1747271;81;24531;-88
2021/06/29 09:40:28;;;;;;;;;;;;;;;27.39;58.43;97851.73;1749003;81;20501;-88
2021/06/29 09:42:56;;;;;;;;;;;;;;;27.43;58.32;97849.42;1747150;81;24811;-88
2021/06/29 09:45:33;;;;;;;;;;;;;;;27.45;58.19;97855.37;1742942;81;22057;-88
2021/06/29 09:47:59;;;;;;;;;;;;;;;27.54;58.22;97848.67;1748718;81;26869;-88
2021/06/29 09:50:36;;;;;;;;;;;;;;;27.63;58.25;97851.32;1746068;81;24453;-88
2021/06/29 09:53:12;;;;;;;;;;;;;;;27.70;58.11;97848.53;1741797;81;20446;-88
2021/06/29 09:55:39;;;;;;;;;;;;;;;27.79;58.07;97847.14;1743943;81;25447;-88
2021/06/29 09:58:09;;;;;;;;;;;;;;;27.74;57.81;97832.23;1743801;81;22738;-88
2021/06/29 10:00:54;;;;;;;;;;;;;;;27.88;57.69;97843.05;1744403;81;26830;-88
2021/06/29 10:03:24;;;;;;;;;;;;;;;27.94;57.53;97837.27;1745048;81;25128;-88
2021/06/29 10:05:53;;;;;;;;;;;;;;;28.01;57.49;97832.61;1743538;81;20474;-88
2021/06/29 10:08:27;;;;;;;;;;;;;;;28.16;57.63;97831.13;1745767;81;24839;-88
2021/06/29 10:11:09;;;;;;;;;;;;;;;28.28;57.57;97832.48;1745630;81;22006;-88
2021/06/29 10:13:36;;;;;;;;;;;;;;;28.45;57.64;97836.10;1745091;81;26126;-88
2021/06/29 10:16:07;;;;;;;;;;;;;;;28.52;57.45;97832.77;1745123;81;24414;-88
2021/06/29 10:18:37;;;;;;;;;;;;;;;28.54;57.18;97835.20;1746905;81;20506;-88
2021/06/29 10:21:03;;;;;;;;;;;;;;;28.53;56.91;97831.69;1741960;81;26543;-88
2021/06/29 10:23:30;;;;;;;;;;;;;;;28.56;56.72;97835.80;1744976;81;22071;-88
2021/06/29 10:25:56;;;;;;;;;;;;;;;28.62;56.51;97828.13;1744447;81;26055;-88
2021/06/29 10:28:22;;;;;;;;;;;;;;;28.64;56.25;97829.50;1742228;81;24446;-88
2021/06/29 10:30:49;;;;;;;;;;;;;;;28.68;56.16;97831.22;1748421;81;20259;-88
2021/06/29 10:33:15;;;;;;;;;;;;;;;28.67;56.00;97832.27;1749212;81;24773;-88
2021/06/29 10:35:41;;;;;;;;;;;;;;;28.63;55.87;97831.94;1752983;81;20234;-88
2021/06/29 10:38:08;;;;;;;;;;;;;;;28.59;55.87;97834.78;1751709;81;26011;-88
2021/06/29 10:40:35;;;;;;;;;;;;;;;28.56;55.98;97828.54;1751766;81;24515;-88
2021/06/29 10:43:01;;;;;;;;;;;;;;;28.54;56.04;97822.56;1724041;81;20330;-88
2021/06/29 10:45:38;;;;;;;;;;;;;;;28.58;56.08;97830.48;1750201;81;24807;-88
2021/06/29 10:48:09;;;;;;;;;;;;;;;28.53;56.04;97824.16;1752755;81;22059;-88
2021/06/29 10:50:36;;;;;;;;;;;;;;;28.42;55.91;97826.34;1733525;81;25953;-88
2021/06/29 10:53:02;;;;;;;;;;;;;;;28.34;55.85;97826.16;1752492;81;24413;-88
2021/06/29 10:55:28;;;;;;;;;;;;;;;28.36;55.89;97825.41;1758597;81;20241;-88
2021/06/29 10:57:56;;;;;;;;;;;;;;;28.44;55.89;97821.52;1751392;81;24772;-88
2021/06/29 11:00:24;;;;;;;;;;;;;;;28.50;55.80;97823.27;1749957;81;21960;-88
2021/06/29 11:03:08;;;;;;;;;;;;;;;28.55;55.66;97815.30;1750177;81;25993;-88
2021/06/29 11:05:39;;;;;;;;;;;;;;;28.60;55.62;97814.06;1755474;81;24623;-88
2021/06/29 11:08:07;;;;;;;;;;;;;;;28.59;55.55;97808.38;1749864;81;20217;-88
2021/06/29 11:10:36;;;;;;;;;;;;;;;28.60;55.53;97812.72;1752632;81;24814;-88
2021/06/29 11:13:03;;;;;;;;;;;;;;;28.58;55.46;97812.98;1753869;81;22017;-88
2021/06/29 11:15:46;;;;;;;;;;;;;;;28.53;55.45;97810.14;1744402;81;26097;-88
2021/06/29 11:18:21;;;;;;;;;;;;;;;28.42;55.15;97815.58;1747354;81;24409;-89
2021/06/29 11:20:49;;;;;;;;;;;;;;;28.33;54.94;97814.27;1754851;81;20159;-88
2021/06/29 11:23:19;;;;;;;;;;;;;;;28.36;55.02;97803.88;1753435;81;24928;-88
2021/06/29 11:25:46;;;;;;;;;;;;;;;28.43;55.20;97801.86;1742604;81;22056;-88
2021/06/29 11:28:32;;;;;;;;;;;;;;;28.35;54.95;97802.75;1755942;81;26055;-88
2021/06/29 11:31:03;;;;;;;;;;;;;;;28.31;54.91;97793.00;1751750;81;24445;-88
2021/06/29 11:33:38;;;;;;;;;;;;;;;28.36;55.00;97791.77;1742480;81;20271;-88
2021/06/29 11:36:05;;;;;;;;;;;;;;;28.34;54.83;97791.69;1747266;81;24783;-88
2021/06/29 11:38:39;;;;;;;;;;;;;;;28.31;54.77;97791.66;1744115;81;23026;-88
2021/06/29 11:41:23;;;;;;;;;;;;;;;28.32;54.81;97791.92;1743334;81;25943;-88
2021/06/29 11:43:52;;;;;;;;;;;;;;;28.28;54.64;97789.41;1746846;81;24420;-88
2021/06/29 11:46:36;;;;;;;;;;;;;;;28.23;54.33;97781.23;1743027;81;20164;-88
2021/06/29 11:49:08;;;;;;;;;;;;;;;28.22;54.17;97774.20;1744807;81;24778;-88
2021/06/29 11:51:39;;;;;;;;;;;;;;;28.24;54.11;97770.24;1744716;81;21958;-88
2021/06/29 11:54:05;;;;;;;;;;;;;;;28.24;53.91;97765.38;1745357;81;26847;-88
2021/06/29 11:56:30;;;;;;;;;;;;;;;28.18;53.75;97756.91;1749539;81;20230;-88
2021/06/29 11:58:56;;;;;;;;;;;;;;;28.13;53.54;97756.27;1744617;81;20816;-88
2021/06/29 12:01:22;;;;;;;;;;;;;;;28.11;53.51;97759.67;1745987;81;20290;-88
2021/06/29 12:03:48;;;;;;;;;;;;;;;28.12;53.52;97757.81;1747394;81;20867;-88
2021/06/29 12:06:21;;;;;;;;;;;;;;;28.18;53.57;97754.21;1742747;81;20967;-88
2021/06/29 12:08:49;;;;;;;;;;;;;;;28.16;53.44;97743.67;1744285;81;24519;-88
2021/06/29 12:11:15;;;;;;;;;;;;;;;28.20;53.50;97747.52;1745760;81;20270;-88
2021/06/29 12:13:41;;;;;;;;;;;;;;;28.19;53.36;97743.22;1745087;81;24732;-88
2021/06/29 12:16:07;;;;;;;;;;;;;;;28.21;53.35;97742.44;1748326;81;20245;-88
2021/06/29 12:18:37;;;;;;;;;;;;;;;28.22;53.26;97733.31;1746552;81;21957;-88
2021/06/29 12:21:05;;;;;;;;;;;;;;;28.21;53.07;97733.55;1744568;81;24574;-88
2021/06/29 12:23:34;;;;;;;;;;;;;;;28.22;53.04;97727.94;1744462;81;20373;-88
2021/06/29 12:26:05;;;;;;;;;;;;;;;28.19;53.03;97723.56;1746373;81;25486;-88
2021/06/29 12:28:38;;;;;;;;;;;;;;;28.14;52.91;97715.38;1744025;81;21947;-88
2021/06/29 12:31:06;;;;;;;;;;;;;;;28.14;53.04;97718.08;1743589;81;25970;-88
2021/06/29 12:33:34;;;;;;;;;;;;;;;28.10;52.90;97711.47;1743966;81;24510;-88
2021/06/29 12:36:01;;;;;;;;;;;;;;;28.06;52.79;97714.36;1747535;81;20179;-88
2021/06/29 12:38:29;;;;;;;;;;;;;;;28.05;52.83;97708.67;1745210;81;24853;-88
2021/06/29 12:40:57;;;;;;;;;;;;;;;28.04;52.77;97705.72;1743711;81;21935;-88
2021/06/29 12:43:33;;;;;;;;;;;;;;;28.05;52.82;97708.67;1746076;81;26747;-88
2021/06/29 12:46:16;;;;;;;;;;;;;;;28.09;52.90;97711.20;1747670;81;25309;-88
2021/06/29 12:48:43;;;;;;;;;;;;;;;28.10;52.97;97692.12;1744385;81;20267;-88